»·PEaware :: SKW3442 KSLC-KPDX

SKW3442 :: KSLC-KPDX

FLIGHT INFORMATION

Flight Status: Arrived
Operator:
SkyWest Airlines
More flights by this operator :: More flights under this callsign
Pilot: Aundrey S. (17120)
Aircraft: CANADAIR CL-600 CRJ-200
(CRJ2)
More flights by this aircraft type
Origin: KSLC Salt Lake City Intl
United States
Destination: KPDX Portland Intl
United States
More flights between these airports :: More routes between these airports
Route: CGULL1 TWF BROPH JOTBA HHOOD4
File this flight plan on PilotEdge
Remarks:
Altitude:
(Current/Filed)
36,000ft
Speed:
(Current/Filed)
420kts
Departed: 06-Sep-19 07:21 PM
Arrived: 06-Sep-19 08:45 PM
Distance/Time
Traveled:
546nm/1:24
Distance/Time
To Go:
Arrived

Flight Plot

Page will automatically refresh every two minutes.

Flight plan parsing failed; only flown route is shown


Map Options




Map Legend


Flown Route
Filed Route
Departure Airport
Arrival Airport
Navaid (VOR, NDB)
Fix

Horizontal Profiles

Position Reports

Time Latitude Longitude Heading Altitude Ground
Speed
06-Sep-19 18:42 40.789048 -111.985606 122 4221ft 0kts
06-Sep-19 18:43 40.789048 -111.985606 122 4221ft 0kts
06-Sep-19 18:44 40.789048 -111.985606 122 4221ft 0kts
06-Sep-19 18:45 40.789048 -111.985606 122 4221ft 0kts
06-Sep-19 18:46 40.789048 -111.985606 122 4221ft 0kts
06-Sep-19 18:47 40.789048 -111.985606 122 4221ft 0kts
06-Sep-19 18:48 40.789048 -111.985606 122 4221ft 0kts
06-Sep-19 18:49 40.789048 -111.985606 122 4221ft 0kts
06-Sep-19 18:50 40.789048 -111.985606 122 4221ft 0kts
06-Sep-19 18:51 40.789048 -111.985606 122 4221ft 0kts
06-Sep-19 18:52 40.789048 -111.985606 122 4221ft 0kts
06-Sep-19 18:53 40.789048 -111.985606 122 4221ft 0kts
06-Sep-19 18:54 40.789048 -111.985606 122 4221ft 0kts
06-Sep-19 18:55 40.789048 -111.985606 122 4221ft 0kts
06-Sep-19 18:56 40.789048 -111.985606 122 4221ft 0kts
06-Sep-19 18:57 40.789048 -111.985606 122 4221ft 0kts
06-Sep-19 18:58 40.789048 -111.985606 122 4221ft 0kts
06-Sep-19 18:59 40.789048 -111.985606 122 4221ft 0kts
06-Sep-19 19:00 40.789048 -111.985606 122 4221ft 0kts
06-Sep-19 19:01 40.789048 -111.985606 122 4221ft 0kts
06-Sep-19 19:02 40.789048 -111.985606 122 4221ft 0kts
06-Sep-19 19:03 40.789048 -111.985606 122 4221ft 0kts
06-Sep-19 19:04 40.789048 -111.985606 122 4221ft 0kts
06-Sep-19 19:05 40.789048 -111.985606 122 4221ft 0kts
06-Sep-19 19:06 40.789048 -111.985606 122 4221ft 0kts
06-Sep-19 19:07 40.789089 -111.985817 119 4221ft 2kts
06-Sep-19 19:08 40.789385 -111.986502 119 4221ft 2kts
06-Sep-19 19:09 40.789415 -111.986572 119 4221ft 0kts
06-Sep-19 19:10 40.789415 -111.986572 119 4221ft 0kts
06-Sep-19 19:11 40.789415 -111.986572 119 4221ft 0kts
06-Sep-19 19:12 40.790086 -111.986459 318 4221ft 9kts
06-Sep-19 19:13 40.788304 -111.989202 211 4221ft 11kts
06-Sep-19 19:14 40.787239 -111.993663 197 4221ft 14kts
06-Sep-19 19:15 40.782705 -111.993218 174 4221ft 18kts
06-Sep-19 19:16 40.777100 -111.992561 175 4221ft 21kts
06-Sep-19 19:17 40.775144 -111.993917 312 4224ft 7kts
06-Sep-19 19:18 40.775207 -111.994046 292 4224ft 0kts
06-Sep-19 19:19 40.775235 -111.994264 271 4224ft 4kts
06-Sep-19 19:20 40.787172 -111.996907 354 4221ft 130kts
06-Sep-19 19:21 40.831070 -112.021692 312 5113ft 228kts
06-Sep-19 19:22 40.872687 -112.098635 306 5946ft 244kts
06-Sep-19 19:23 40.916093 -112.174468 306 7791ft 277kts
06-Sep-19 19:24 40.964904 -112.255839 307 11858ft 293kts
06-Sep-19 19:25 41.022362 -112.348638 306 15040ft 339kts
06-Sep-19 19:26 41.088586 -112.440328 321 18725ft 363kts
06-Sep-19 19:27 41.172862 -112.513735 318 21970ft 377kts
06-Sep-19 19:28 41.257766 -112.599392 319 24929ft 394kts
06-Sep-19 19:29 41.335679 -112.704247 309 27775ft 404kts
06-Sep-19 19:30 41.412424 -112.817291 308 30517ft 419kts
06-Sep-19 19:31 41.490956 -112.937174 307 32905ft 437kts
06-Sep-19 19:32 41.571927 -113.061483 307 35052ft 453kts
06-Sep-19 19:33 41.656547 -113.191971 307 36224ft 467kts
06-Sep-19 19:34 41.741663 -113.323779 307 36227ft 462kts
06-Sep-19 19:35 41.826027 -113.454996 307 36227ft 461kts
06-Sep-19 19:36 41.909653 -113.585657 306 36225ft 459kts
06-Sep-19 19:37 41.993327 -113.716948 306 36229ft 459kts
06-Sep-19 19:38 42.076521 -113.848071 306 36223ft 459kts
06-Sep-19 19:39 42.159534 -113.979499 306 36209ft 458kts
06-Sep-19 19:40 42.242351 -114.110553 306 36212ft 458kts
06-Sep-19 19:41 42.324952 -114.241776 306 36216ft 457kts
06-Sep-19 19:42 42.407481 -114.373485 306 36216ft 457kts
06-Sep-19 19:43 42.489746 -114.505133 306 36215ft 457kts
06-Sep-19 19:44 42.572297 -114.636824 306 36215ft 456kts
06-Sep-19 19:45 42.654527 -114.768542 306 36217ft 456kts
06-Sep-19 19:46 42.733671 -114.903013 300 36218ft 452kts
06-Sep-19 19:47 42.802645 -115.047243 299 36204ft 452kts
06-Sep-19 19:48 42.870808 -115.191387 299 36167ft 452kts
06-Sep-19 19:49 42.939030 -115.336392 299 36154ft 452kts
06-Sep-19 19:50 43.006599 -115.480716 299 36153ft 451kts
06-Sep-19 19:51 43.074325 -115.626084 299 36152ft 450kts
06-Sep-19 19:52 43.142122 -115.772324 298 36156ft 450kts
06-Sep-19 19:53 43.209203 -115.917735 298 36155ft 450kts
06-Sep-19 19:54 43.276397 -116.064139 299 36154ft 449kts
06-Sep-19 19:56 43.342909 -116.209738 299 36152ft 448kts
06-Sep-19 19:57 43.409192 -116.355582 299 36146ft 448kts
06-Sep-19 19:58 43.475307 -116.501804 299 36143ft 448kts
06-Sep-19 19:59 43.540962 -116.647697 299 36141ft 447kts
06-Sep-19 20:00 43.606765 -116.794676 298 36148ft 448kts
06-Sep-19 20:01 43.672076 -116.941295 298 36145ft 448kts
06-Sep-19 20:02 43.737296 -117.088449 298 36138ft 448kts
06-Sep-19 20:03 43.802195 -117.235632 298 36135ft 447kts
06-Sep-19 20:04 43.867241 -117.383892 298 36134ft 447kts
06-Sep-19 20:05 43.931701 -117.531583 298 36133ft 447kts
06-Sep-19 20:06 43.996111 -117.679908 298 36139ft 447kts
06-Sep-19 20:07 44.060484 -117.828904 298 36154ft 447kts
06-Sep-19 20:08 44.124475 -117.977801 298 36184ft 447kts
06-Sep-19 20:09 44.188239 -118.126949 298 36192ft 447kts
06-Sep-19 20:10 44.251990 -118.276849 298 36215ft 447kts
06-Sep-19 20:11 44.315291 -118.426443 298 36216ft 448kts
06-Sep-19 20:12 44.378548 -118.576744 298 36215ft 448kts
06-Sep-19 20:13 44.441086 -118.726111 297 36208ft 448kts
06-Sep-19 20:13 44.493733 -118.852473 297 36201ft 448kts
06-Sep-19 20:15 44.566945 -119.029052 298 36193ft 449kts
06-Sep-19 20:16 44.629766 -119.181547 297 36191ft 449kts
06-Sep-19 20:16 44.681938 -119.308861 297 36190ft 449kts
06-Sep-19 20:18 44.754857 -119.487682 297 36189ft 449kts
06-Sep-19 20:19 44.817098 -119.641225 297 36092ft 448kts
06-Sep-19 20:19 44.869052 -119.770070 297 34729ft 453kts
06-Sep-19 20:20 44.931566 -119.925834 297 32916ft 456kts
06-Sep-19 20:22 45.004986 -120.109896 297 30701ft 466kts
06-Sep-19 20:22 45.057670 -120.242730 297 29322ft 457kts
06-Sep-19 20:23 45.118967 -120.398101 298 27393ft 445kts
06-Sep-19 20:24 45.178592 -120.550407 297 25474ft 437kts
06-Sep-19 20:25 45.236711 -120.700899 297 23561ft 432kts
06-Sep-19 20:26 45.293879 -120.849780 297 21668ft 428kts
06-Sep-19 20:27 45.350413 -120.997816 297 19709ft 425kts
06-Sep-19 20:28 45.406116 -121.144295 297 17658ft 410kts
06-Sep-19 20:29 45.445683 -121.290353 285 15678ft 384kts
06-Sep-19 20:30 45.473850 -121.432388 285 13751ft 361kts
06-Sep-19 20:31 45.500512 -121.567358 285 11832ft 347kts
06-Sep-19 20:32 45.525755 -121.696042 285 10099ft 318kts
06-Sep-19 20:33 45.533037 -121.815993 273 8579ft 291kts
06-Sep-19 20:34 45.537064 -121.926395 272 7562ft 268kts
06-Sep-19 20:35 45.539887 -122.034336 253 6691ft 275kts
06-Sep-19 20:36 45.500939 -122.123404 235 6033ft 252kts
06-Sep-19 20:37 45.473990 -122.205238 266 5439ft 214kts
06-Sep-19 20:38 45.472207 -122.286628 269 4407ft 190kts
06-Sep-19 20:39 45.490666 -122.351891 297 3193ft 178kts
06-Sep-19 20:40 45.513624 -122.412957 300 2689ft 170kts
06-Sep-19 20:41 45.536234 -122.470536 298 1823ft 151kts
06-Sep-19 20:42 45.556631 -122.522532 298 1071ft 147kts
06-Sep-19 20:43 45.575723 -122.571699 301 283ft 140kts
06-Sep-19 20:44 45.588977 -122.605656 299 20ft 36kts
06-Sep-19 20:45 45.592876 -122.613390 30 22ft 0kts
06-Sep-19 20:46 45.592573 -122.610050 119 22ft 25kts
06-Sep-19 20:47 45.591410 -122.602550 89 22ft 12kts
06-Sep-19 20:48 45.589437 -122.601417 128 21ft 16kts
06-Sep-19 20:49 45.586883 -122.594881 121 22ft 13kts
06-Sep-19 20:50 45.587310 -122.593373 23 22ft 0kts

Navigation Log

Ident Type
Flight plan parsing failed, navigation log unavailable